Terminal Aerodrome Forecast
Issued by NWS

Home | Current Version | Previous Version | Text Only | Print | Product List | Glossary On
Versions: 1 2 3 4 5 6 7 8 9 10 11 12 13 14 15 16 17 18 19 20
996
FTPA31 PHFO 232333
TAFHNY
TAF
PHNY 232333Z 2400/2424 VRB06KT P6SM BKN025
      TEMPO 2400/2404 BKN015
     FM240400 VRB06KT P6SM VCSH SCT010 OVC020
     FM242000 04011KT P6SM SCT010 SCT025=

USA.gov is the U.S. government's official web portal to all federal, state and local government web resources and services.